Time;durP1;ratioP1;P1;durP2;ratioP2;P2;SDS_P1;SDS_P2;PMS_P1;PMS_P2;Temp;Humidity;BMP_temperature;BMP_pressure;BME280_temperature;BME280_humidity;BME280_pressure;Samples;Min_cycle;Max_cycle;Signal;HPM_P1;HPM_P2
2023/02/06 00:01:48;;;;;;;47.47;19.27;;;-5.50;99.90;;;;;;5016851;28;20025;-78
2023/02/06 00:04:15;;;;;;;36.20;19.50;;;-5.50;99.90;;;;;;5034096;28;20208;-78
2023/02/06 00:06:41;;;;;;;41.63;18.88;;;-5.50;99.90;;;;;;5016290;28;20029;-79
2023/02/06 00:09:07;;;;;;;32.17;15.48;;;-5.40;99.90;;;;;;4996280;28;20033;-81
2023/02/06 00:11:33;;;;;;;33.15;16.40;;;-5.40;99.90;;;;;;5013711;28;20439;-81
2023/02/06 00:13:58;;;;;;;33.15;16.67;;;-5.40;99.90;;;;;;5031994;28;20064;-81
2023/02/06 00:16:32;;;;;;;29.60;14.20;;;-5.40;99.90;;;;;;5015949;28;20074;-82
2023/02/06 00:18:59;;;;;;;36.40;17.30;;;-5.30;99.90;;;;;;5032964;28;20033;-80
2023/02/06 00:21:26;;;;;;;32.05;15.88;;;-5.30;99.90;;;;;;5033481;28;20029;-81
2023/02/06 00:23:54;;;;;;;38.33;17.40;;;-5.30;99.90;;;;;;5015893;28;20025;-82
2023/02/06 00:26:20;;;;;;;29.63;15.35;;;-5.30;99.90;;;;;;5015833;28;20021;-80
2023/02/06 00:28:46;;;;;;;28.50;14.48;;;-5.30;99.90;;;;;;5033124;28;20025;-81
2023/02/06 00:31:13;;;;;;;33.53;14.63;;;-5.30;99.90;;;;;;5015840;28;20132;-81
2023/02/06 00:33:39;;;;;;;27.92;13.57;;;-5.40;99.90;;;;;;5032810;28;20497;-81
2023/02/06 00:36:05;;;;;;;22.02;11.75;;;-5.40;99.90;;;;;;5033263;28;20494;-80
2023/02/06 00:38:31;;;;;;;29.58;12.80;;;-5.40;99.90;;;;;;5033557;28;20025;-80
2023/02/06 00:40:56;;;;;;;21.10;11.05;;;-5.50;99.90;;;;;;5033263;28;20068;-81
2023/02/06 00:43:22;;;;;;;20.58;12.40;;;-5.40;99.90;;;;;;5032982;28;20021;-81
2023/02/06 00:45:52;;;;;;;26.42;12.77;;;-5.50;99.90;;;;;;5033019;28;20025;-80
2023/02/06 00:48:17;;;;;;;21.42;11.40;;;-5.40;99.90;;;;;;5033406;28;20056;-81
2023/02/06 00:50:43;;;;;;;24.35;13.40;;;-5.50;99.90;;;;;;5015062;28;20061;-81
2023/02/06 00:53:09;;;;;;;23.25;12.93;;;-5.50;99.90;;;;;;5033199;28;20026;-80
2023/02/06 00:55:35;;;;;;;25.23;12.35;;;-5.50;99.90;;;;;;5032566;28;20064;-81
2023/02/06 00:58:00;;;;;;;23.70;13.05;;;-5.60;99.90;;;;;;5015284;28;20057;-82
2023/02/06 01:00:26;;;;;;;25.60;13.07;;;-5.70;99.90;;;;;;5014944;28;20029;-81
2023/02/06 01:02:51;;;;;;;25.25;12.50;;;-5.60;99.90;;;;;;5032916;28;20040;-82
2023/02/06 01:05:17;;;;;;;24.85;12.57;;;-5.60;99.90;;;;;;5032787;28;20476;-82
2023/02/06 01:07:43;;;;;;;26.67;12.75;;;-5.60;99.90;;;;;;5032551;28;20027;-82
2023/02/06 01:10:10;;;;;;;33.33;15.13;;;-5.60;99.90;;;;;;5032681;28;20036;-81
2023/02/06 01:12:36;;;;;;;30.52;15.68;;;-5.60;99.90;;;;;;5032873;28;20382;-81
2023/02/06 01:15:04;;;;;;;32.08;15.70;;;-5.60;99.90;;;;;;5015363;28;20045;-81
2023/02/06 01:17:31;;;;;;;34.83;16.55;;;-5.70;99.90;;;;;;5032280;28;20364;-81
2023/02/06 01:19:57;;;;;;;39.83;17.17;;;-5.60;99.90;;;;;;5033315;28;20025;-80
2023/02/06 01:22:22;;;;;;;33.78;16.27;;;-5.70;99.90;;;;;;5032976;28;20160;-78
2023/02/06 01:24:48;;;;;;;33.47;19.02;;;-5.60;99.90;;;;;;5032943;28;20037;-78
2023/02/06 01:27:13;;;;;;;37.42;16.63;;;-5.60;99.90;;;;;;5032915;28;20449;-78
2023/02/06 01:29:39;;;;;;;45.22;21.17;;;-5.70;99.90;;;;;;5015380;28;20398;-78
2023/02/06 01:32:05;;;;;;;39.05;18.70;;;-5.70;99.90;;;;;;5019490;28;20028;-78
2023/02/06 01:34:30;;;;;;;35.85;18.58;;;-5.70;99.90;;;;;;5018959;28;20112;-81
2023/02/06 01:36:56;;;;;;;42.85;18.70;;;-5.60;99.90;;;;;;5036614;28;20025;-81
2023/02/06 01:39:21;;;;;;;33.33;17.48;;;-5.60;99.90;;;;;;5036553;28;20048;-79
2023/02/06 01:41:47;;;;;;;41.13;19.98;;;-5.60;99.90;;;;;;5036476;28;20017;-80
2023/02/06 01:44:14;;;;;;;41.13;21.48;;;-5.60;99.90;;;;;;5019069;28;20026;-81
2023/02/06 01:46:43;;;;;;;37.83;20.65;;;-5.60;99.90;;;;;;5036640;28;20021;-80
2023/02/06 01:49:16;;;;;;;39.67;18.63;;;-5.60;99.90;;;;;;5018937;28;20116;-79
2023/02/06 01:51:42;;;;;;;37.78;18.50;;;-5.60;99.90;;;;;;5018673;28;20038;-79
2023/02/06 01:54:09;;;;;;;43.67;18.23;;;-5.70;99.90;;;;;;5036118;28;20079;-79
2023/02/06 01:56:48;;;;;;;51.38;22.20;;;-5.60;99.90;;;;;;5019214;28;20075;-79
2023/02/06 01:59:14;;;;;;;45.25;20.40;;;-5.60;99.90;;;;;;5018607;28;20107;-79
2023/02/06 02:01:40;;;;;;;48.55;20.63;;;-5.70;99.90;;;;;;5018149;28;20111;-79
2023/02/06 02:04:11;;;;;;;48.45;20.80;;;-5.70;99.90;;;;;;5036146;28;20057;-81
2023/02/06 02:06:39;;;;;;;51.25;21.08;;;-5.80;99.90;;;;;;5036255;28;20033;-79
2023/02/06 02:09:06;;;;;;;47.40;21.38;;;-5.70;99.90;;;;;;5035716;28;20495;-79
2023/02/06 02:11:38;;;;;;;51.88;20.30;;;-5.70;99.90;;;;;;5018261;28;20045;-79
2023/02/06 02:14:07;;;;;;;42.55;21.05;;;-5.70;99.90;;;;;;5035825;28;20060;-81
2023/02/06 02:17:02;;;;;;;48.25;21.23;;;-5.70;99.90;;;;;;5035923;28;20033;-79
2023/02/06 02:20:04;;;;;;;48.17;21.20;;;-5.70;99.90;;;;;;5035954;28;20034;-81
2023/02/06 02:22:32;;;;;;;55.13;23.33;;;-5.80;99.90;;;;;;5018459;28;20025;-79
2023/02/06 02:25:37;;;;;;;45.88;20.35;;;-5.70;99.90;;;;;;5018421;28;20033;-78
2023/02/06 02:28:23;;;;;;;49.88;20.75;;;-5.70;99.90;;;;;;5036014;28;20029;-80
2023/02/06 02:31:13;;;;;;;45.33;20.65;;;-5.80;99.90;;;;;;5035400;28;20033;-79
2023/02/06 02:33:57;;;;;;;48.00;22.25;;;-5.80;99.90;;;;;;5017947;28;20029;-79
2023/02/06 02:36:48;;;;;;;50.40;24.65;;;-5.80;99.90;;;;;;5017755;28;20033;-80
2023/02/06 02:39:19;;;;;;;48.65;23.08;;;-5.90;99.90;;;;;;5017776;28;20172;-78
2023/02/06 02:42:02;;;;;;;34.67;19.50;;;-5.90;99.90;;;;;;5015848;28;20436;-78
2023/02/06 02:45:12;;;;;;;59.20;27.10;;;-6.00;99.90;;;;;;5035543;28;20026;-78
2023/02/06 02:47:50;;;;;;;40.28;19.55;;;-6.10;99.90;;;;;;5035376;28;20034;-79
2023/02/06 02:50:18;;;;;;;44.42;19.70;;;-6.10;99.90;;;;;;5018120;28;20124;-78
2023/02/06 02:52:44;;;;;;;45.17;22.50;;;-6.10;99.90;;;;;;5035821;28;20406;-79
2023/02/06 02:55:22;;;;;;;48.72;21.75;;;-6.10;99.90;;;;;;5017587;28;20052;-79
2023/02/06 02:57:55;;;;;;;46.75;21.25;;;-6.10;99.90;;;;;;5053185;28;20116;-79
2023/02/06 03:00:24;;;;;;;45.20;22.20;;;-6.10;99.90;;;;;;5055300;28;20074;-78
2023/02/06 03:02:53;;;;;;;50.95;22.25;;;-6.10;99.90;;;;;;5054974;28;20055;-78
2023/02/06 03:05:23;;;;;;;46.08;21.90;;;-6.10;99.90;;;;;;5037351;28;20397;-78
2023/02/06 03:07:52;;;;;;;47.75;20.67;;;-6.10;99.90;;;;;;5055164;28;20045;-78
2023/02/06 03:10:38;;;;;;;41.17;19.10;;;-6.10;99.90;;;;;;5018503;28;20041;-78
2023/02/06 03:13:16;;;;;;;49.15;20.80;;;-6.10;99.90;;;;;;5017398;28;20040;-79
2023/02/06 03:16:27;;;;;;;42.17;20.80;;;-6.20;99.90;;;;;;5017473;28;20490;-79
2023/02/06 03:19:30;;;;;;;43.53;20.30;;;-6.20;99.90;;;;;;4938718;29;20090;-78
2023/02/06 03:21:56;;;;;;;;;;;-6.20;99.90;;;;;;4882415;29;20459;-78
2023/02/06 03:24:28;;;;;;;44.70;21.33;;;-6.30;99.90;;;;;;4983446;28;19950;-78
2023/02/06 03:26:58;;;;;;;58.53;24.67;;;-6.30;99.90;;;;;;5017071;28;20036;-79
2023/02/06 03:29:26;;;;;;;51.83;23.60;;;-6.40;99.90;;;;;;5017271;28;20418;-79
2023/02/06 03:31:56;;;;;;;40.65;20.10;;;-6.50;99.90;;;;;;5017010;28;20026;-80
2023/02/06 03:34:30;;;;;;;38.85;19.83;;;-6.50;99.90;;;;;;5016947;28;20029;-79
2023/02/06 03:36:55;;;;;;;38.08;18.63;;;-6.60;99.90;;;;;;5034716;28;20021;-79
2023/02/06 03:39:22;;;;;;;31.15;17.75;;;-6.60;99.90;;;;;;5016977;28;20036;-80
2023/02/06 03:41:50;;;;;;;37.38;16.40;;;-6.80;99.90;;;;;;5017210;28;20108;-79
2023/02/06 03:44:22;;;;;;;36.25;17.95;;;-6.80;99.90;;;;;;5016939;28;20083;-79
2023/02/06 03:46:49;;;;;;;32.88;16.88;;;-6.90;99.90;;;;;;5016772;28;20021;-80
2023/02/06 03:49:18;;;;;;;23.50;13.35;;;-6.90;99.90;;;;;;5034648;28;20029;-80
2023/02/06 03:51:49;;;;;;;25.53;11.57;;;-6.90;99.90;;;;;;5034640;28;20037;-80
2023/02/06 03:54:20;;;;;;;24.50;11.70;;;-7.00;99.90;;;;;;5016707;28;20036;-79
2023/02/06 03:56:49;;;;;;;21.60;11.93;;;-7.10;99.90;;;;;;5034124;28;20025;-80
2023/02/06 03:59:14;;;;;;;20.88;10.45;;;-7.10;99.90;;;;;;5034075;28;20075;-78
2023/02/06 04:01:45;;;;;;;19.90;10.73;;;-7.20;99.90;;;;;;5016444;28;20063;-78
2023/02/06 04:04:17;;;;;;;18.50;11.43;;;-7.20;99.90;;;;;;5034174;28;20120;-77
2023/02/06 04:06:43;;;;;;;20.92;9.00;;;-7.30;99.90;;;;;;5034307;28;20017;-78
2023/02/06 04:09:09;;;;;;;26.10;12.25;;;-7.30;99.90;;;;;;5033979;28;20518;-78
2023/02/06 04:11:34;;;;;;;19.87;10.90;;;-7.30;99.90;;;;;;5016244;28;20025;-78
2023/02/06 04:14:00;;;;;;;24.70;12.50;;;-7.30;99.90;;;;;;5015984;28;20531;-78
2023/02/06 04:16:25;;;;;;;24.20;11.83;;;-7.30;99.90;;;;;;5016371;28;20021;-77
2023/02/06 04:18:51;;;;;;;28.80;13.93;;;-7.40;99.90;;;;;;5016146;28;20033;-78
2023/02/06 04:21:17;;;;;;;27.17;15.13;;;-7.30;99.90;;;;;;5016142;28;20029;-78
2023/02/06 04:23:42;;;;;;;29.55;14.82;;;-7.30;99.90;;;;;;5016516;28;20025;-78
2023/02/06 04:26:08;;;;;;;29.37;15.60;;;-7.30;99.90;;;;;;5033763;28;20021;-77
2023/02/06 04:28:33;;;;;;;37.90;17.17;;;-7.30;99.90;;;;;;5015944;28;20470;-77
2023/02/06 04:30:59;;;;;;;29.67;14.98;;;-7.20;99.90;;;;;;5015896;28;20043;-77
2023/02/06 04:33:26;;;;;;;31.70;16.33;;;-7.30;99.90;;;;;;5016159;28;20586;-78
2023/02/06 04:35:51;;;;;;;32.47;18.38;;;-7.20;99.90;;;;;;5015983;28;20100;-77
2023/02/06 04:38:17;;;;;;;25.43;14.77;;;-7.20;99.90;;;;;;5015855;28;20033;-77
2023/02/06 04:40:43;;;;;;;35.53;14.50;;;-7.20;99.90;;;;;;5015882;28;20382;-77
2023/02/06 04:43:08;;;;;;;24.57;13.20;;;-7.20;99.90;;;;;;5033501;28;20030;-77
2023/02/06 04:45:34;;;;;;;27.30;14.15;;;-7.20;99.90;;;;;;5033327;28;20473;-77
2023/02/06 04:47:59;;;;;;;30.20;17.07;;;-7.20;99.90;;;;;;5016284;28;20021;-78
2023/02/06 04:50:30;;;;;;;28.55;15.00;;;-7.20;99.90;;;;;;5015824;28;20034;-78
2023/02/06 04:52:56;;;;;;;26.47;13.33;;;-7.20;99.90;;;;;;5015691;28;20029;-77
2023/02/06 04:55:21;;;;;;;25.10;13.57;;;-7.20;99.90;;;;;;5015608;28;20043;-78
2023/02/06 04:57:47;;;;;;;23.40;14.02;;;-7.20;99.90;;;;;;5015686;28;20026;-77
2023/02/06 05:00:13;;;;;;;24.02;12.45;;;-7.20;99.90;;;;;;5033194;28;20021;-78
2023/02/06 05:02:39;;;;;;;26.53;13.53;;;-7.20;99.90;;;;;;5032985;28;20061;-78
2023/02/06 05:05:06;;;;;;;25.97;14.50;;;-7.10;99.90;;;;;;5014679;28;20068;-77
2023/02/06 05:07:31;;;;;;;30.00;14.50;;;-7.10;99.90;;;;;;5015646;28;20021;-77
2023/02/06 05:09:57;;;;;;;34.60;15.67;;;-7.10;99.90;;;;;;5015493;28;20041;-78
2023/02/06 05:12:23;;;;;;;40.13;18.13;;;-7.10;99.90;;;;;;5033185;28;20029;-77
2023/02/06 05:14:49;;;;;;;36.00;18.37;;;-7.10;99.90;;;;;;5012137;28;20073;-78
2023/02/06 05:17:14;;;;;;;28.50;14.70;;;-7.00;99.90;;;;;;5012346;28;20100;-79
2023/02/06 05:19:40;;;;;;;30.00;14.77;;;-7.00;99.90;;;;;;5013341;28;20025;-79
2023/02/06 05:22:06;;;;;;;31.07;15.27;;;-7.00;99.90;;;;;;5012165;28;20393;-78
2023/02/06 05:24:31;;;;;;;37.60;16.33;;;-7.00;99.90;;;;;;5013255;28;20045;-79
2023/02/06 05:26:57;;;;;;;29.80;14.50;;;-7.00;99.90;;;;;;5013242;28;20483;-79
2023/02/06 05:29:24;;;;;;;41.40;20.03;;;-7.10;99.90;;;;;;5011997;28;20038;-78
2023/02/06 05:31:50;;;;;;;44.23;19.30;;;-7.10;99.90;;;;;;5011985;28;20045;-77
2023/02/06 05:34:15;;;;;;;38.93;19.13;;;-7.10;99.90;;;;;;5013034;28;20026;-79
2023/02/06 05:36:41;;;;;;;42.87;21.30;;;-7.10;99.90;;;;;;5011941;28;20053;-79
2023/02/06 05:39:07;;;;;;;35.33;16.67;;;-7.20;99.90;;;;;;5011761;28;20037;-77
2023/02/06 05:41:32;;;;;;;36.90;17.53;;;-7.20;99.90;;;;;;5013159;28;20026;-78
2023/02/06 05:43:58;;;;;;;37.37;16.13;;;-7.20;99.90;;;;;;5011791;28;20113;-78
2023/02/06 05:46:24;;;;;;;48.37;19.57;;;-7.20;99.90;;;;;;5013130;28;20053;-79
2023/02/06 05:48:49;;;;;;;53.73;23.73;;;-7.20;99.90;;;;;;5011812;28;20034;-80
2023/02/06 05:51:15;;;;;;;38.30;18.43;;;-7.30;99.90;;;;;;5012060;28;20042;-79
2023/02/06 05:53:41;;;;;;;38.60;16.53;;;-7.30;99.90;;;;;;5012989;28;20386;-79
2023/02/06 05:56:07;;;;;;;38.23;18.33;;;-7.30;99.90;;;;;;5011726;28;20018;-79
2023/02/06 05:58:32;;;;;;;226.20;84.20;;;-7.30;99.90;;;;;;5012925;28;20030;-78
2023/02/06 06:00:58;;;;;;;260.83;98.87;;;-7.30;99.90;;;;;;5013003;28;20026;-78
2023/02/06 06:03:24;;;;;;;168.60;63.53;;;-7.30;99.90;;;;;;5012889;28;20033;-78
2023/02/06 06:05:49;;;;;;;101.17;39.90;;;-7.40;99.90;;;;;;5012978;28;20037;-78
2023/02/06 06:08:15;;;;;;;78.37;33.23;;;-7.50;99.90;;;;;;5011566;28;20065;-78
2023/02/06 06:10:41;;;;;;;86.73;32.93;;;-7.40;99.90;;;;;;5012798;28;20105;-78
2023/02/06 06:13:07;;;;;;;65.07;25.73;;;-7.50;99.90;;;;;;5011761;28;20026;-78
2023/02/06 06:15:32;;;;;;;49.57;22.70;;;-7.50;99.90;;;;;;5032697;28;20042;-78
2023/02/06 06:17:58;;;;;;;72.97;31.37;;;-7.50;99.90;;;;;;5036184;28;20036;-78
2023/02/06 06:20:24;;;;;;;65.23;26.87;;;-7.50;99.90;;;;;;5018312;28;20483;-78
2023/02/06 06:22:49;;;;;;;86.57;35.57;;;-7.50;99.90;;;;;;5036107;28;20084;-78
2023/02/06 06:25:15;;;;;;;95.33;40.17;;;-7.50;99.90;;;;;;5036002;28;20048;-78
2023/02/06 06:27:41;;;;;;;94.67;36.13;;;-7.50;99.90;;;;;;5035979;28;20021;-78
2023/02/06 06:30:07;;;;;;;73.43;33.17;;;-7.40;99.90;;;;;;5017434;28;20038;-78
2023/02/06 06:32:33;;;;;;;101.13;43.07;;;-7.40;99.90;;;;;;5017548;28;20025;-80
2023/02/06 06:34:59;;;;;;;98.67;41.63;;;-7.30;99.90;;;;;;5018098;28;20030;-78
2023/02/06 06:37:24;;;;;;;86.93;34.93;;;-7.30;99.90;;;;;;5035657;28;20037;-79
2023/02/06 06:39:50;;;;;;;71.10;31.37;;;-7.30;99.90;;;;;;5017974;28;20025;-78
2023/02/06 06:42:15;;;;;;;71.53;28.30;;;-7.30;99.90;;;;;;5017992;28;20116;-77
2023/02/06 06:44:41;;;;;;;82.20;33.37;;;-7.30;99.90;;;;;;5035637;28;20033;-78
2023/02/06 06:47:07;;;;;;;79.47;31.37;;;-7.30;99.90;;;;;;5017821;28;20022;-79
2023/02/06 06:49:32;;;;;;;66.97;30.93;;;-7.20;99.90;;;;;;5035584;28;20021;-80
2023/02/06 06:51:58;;;;;;;62.47;27.13;;;-7.30;99.90;;;;;;5017745;28;20030;-80
2023/02/06 06:54:24;;;;;;;58.93;24.43;;;-7.20;99.90;;;;;;5017744;28;20026;-78
2023/02/06 06:56:49;;;;;;;57.40;23.60;;;-7.20;99.90;;;;;;5018088;28;20091;-78
2023/02/06 06:59:15;;;;;;;45.93;22.40;;;-7.20;99.90;;;;;;5035300;28;20025;-78
2023/02/06 07:01:40;;;;;;;41.33;20.40;;;-7.20;99.90;;;;;;5017732;28;20467;-79
2023/02/06 07:04:06;;;;;;;42.50;21.83;;;-7.10;99.90;;;;;;5017753;28;20033;-79
2023/02/06 07:06:32;;;;;;;44.67;20.10;;;-7.10;99.90;;;;;;5017505;28;20025;-78
2023/02/06 07:08:57;;;;;;;42.47;20.07;;;-7.10;99.90;;;;;;5017190;28;20034;-78
2023/02/06 07:11:24;;;;;;;43.90;21.20;;;-7.00;99.90;;;;;;5017279;28;20029;-78
2023/02/06 07:13:50;;;;;;;46.23;21.10;;;-7.00;99.90;;;;;;5016510;28;20112;-79
2023/02/06 07:16:16;;;;;;;40.60;20.63;;;-7.00;99.90;;;;;;5033518;28;20555;-78
2023/02/06 07:18:41;;;;;;;46.27;22.60;;;-6.90;99.90;;;;;;5016526;28;20017;-78
2023/02/06 07:21:08;;;;;;;62.73;27.57;;;-6.90;99.90;;;;;;5034365;28;20055;-78
2023/02/06 07:23:37;;;;;;;52.57;26.23;;;-6.80;99.90;;;;;;5016575;28;20023;-79
2023/02/06 07:26:03;;;;;;;48.87;23.90;;;-6.70;99.90;;;;;;5033959;28;20483;-79
2023/02/06 07:28:30;;;;;;;51.57;23.20;;;-6.60;99.90;;;;;;5016163;28;20030;-79
2023/02/06 07:31:06;;;;;;;49.53;22.70;;;-6.60;99.90;;;;;;5034601;28;20112;-79
2023/02/06 07:33:33;;;;;;;50.80;22.48;;;-6.50;99.90;;;;;;5034658;28;20443;-80
2023/02/06 07:35:58;;;;;;;64.95;28.58;;;-6.40;99.90;;;;;;5034708;28;20025;-78
2023/02/06 07:38:24;;;;;;;61.47;29.93;;;-6.30;99.90;;;;;;5034510;28;20068;-79
2023/02/06 07:40:49;;;;;;;69.68;31.77;;;-6.20;99.90;;;;;;5025753;28;20053;-79
2023/02/06 07:43:15;;;;;;;89.50;43.00;;;-6.10;99.90;;;;;;5020689;28;20049;-80
2023/02/06 07:45:41;;;;;;;111.20;52.90;;;-6.00;99.90;;;;;;5034060;28;20057;-80
2023/02/06 07:48:07;;;;;;;115.07;54.30;;;-5.90;99.90;;;;;;5016536;28;20091;-79
2023/02/06 07:50:33;;;;;;;110.18;49.30;;;-5.70;99.90;;;;;;5016401;28;20079;-79
2023/02/06 07:52:59;;;;;;;101.65;48.25;;;-5.60;99.90;;;;;;5016465;28;20104;-79
2023/02/06 07:55:25;;;;;;;94.03;46.05;;;-5.50;99.90;;;;;;5034106;28;20104;-79
2023/02/06 07:57:51;;;;;;;87.60;42.67;;;-5.20;99.90;;;;;;5033444;28;20027;-79
2023/02/06 08:00:17;;;;;;;82.03;38.80;;;-5.10;99.90;;;;;;5033388;28;20023;-79
2023/02/06 08:02:42;;;;;;;74.72;43.50;;;-4.80;99.90;;;;;;5014496;28;20022;-79
2023/02/06 08:05:08;;;;;;;73.85;39.75;;;-4.70;99.90;;;;;;5033510;28;20021;-79
2023/02/06 08:07:34;;;;;;;67.63;33.83;;;-4.60;99.90;;;;;;5032918;28;20029;-79
2023/02/06 08:10:00;;;;;;;68.55;37.10;;;-4.40;98.70;;;;;;5015176;28;20403;-79
2023/02/06 08:12:28;;;;;;;85.47;40.92;;;-4.20;95.90;;;;;;5015076;28;20021;-79
2023/02/06 08:14:54;;;;;;;79.20;39.65;;;-4.00;93.60;;;;;;5014472;28;20038;-79
2023/02/06 08:17:20;;;;;;;81.18;39.95;;;-3.90;91.80;;;;;;5015083;28;20032;-79
2023/02/06 08:19:46;;;;;;;83.35;39.90;;;-3.60;90.40;;;;;;5032352;28;20113;-80
2023/02/06 08:22:11;;;;;;;113.65;57.75;;;-3.40;87.90;;;;;;5013940;28;20112;-80
2023/02/06 08:24:37;;;;;;;112.38;56.78;;;-3.30;85.40;;;;;;5013480;28;20036;-80
2023/02/06 08:27:02;;;;;;;113.82;56.50;;;-3.10;84.20;;;;;;5014206;28;20067;-80
2023/02/06 08:29:28;;;;;;;97.35;51.00;;;-3.00;83.00;;;;;;5014688;28;20028;-80
2023/02/06 08:31:54;;;;;;;70.45;34.88;;;-2.90;81.10;;;;;;5032648;28;20037;-80
2023/02/06 08:34:19;;;;;;;62.33;31.40;;;-2.70;80.50;;;;;;5015549;28;20108;-80
2023/02/06 08:36:45;;;;;;;95.93;44.17;;;-2.60;76.30;;;;;;5033124;28;20036;-80
2023/02/06 08:39:13;;;;;;;34.63;17.65;;;-2.60;74.50;;;;;;5033117;28;20041;-80
2023/02/06 08:41:40;;;;;;;10.32;7.88;;;-2.50;72.70;;;;;;5033331;28;20026;-79
2023/02/06 08:44:10;;;;;;;11.85;8.77;;;-2.60;68.60;;;;;;5014778;28;20022;-80
2023/02/06 08:46:36;;;;;;;12.48;8.77;;;-2.50;67.80;;;;;;5014715;28;20051;-80
2023/02/06 08:49:05;;;;;;;10.68;6.22;;;-2.40;67.10;;;;;;5032559;28;20029;-80
2023/02/06 08:51:31;;;;;;;13.77;7.53;;;-2.30;67.80;;;;;;5012640;28;20072;-80
2023/02/06 08:53:58;;;;;;;13.18;7.85;;;-2.30;66.70;;;;;;5031593;28;20509;-80
2023/02/06 08:56:25;;;;;;;14.55;8.32;;;-2.60;64.90;;;;;;5013735;28;20096;-80
2023/02/06 08:58:52;;;;;;;18.88;9.70;;;-2.50;66.00;;;;;;5014133;28;20028;-79
2023/02/06 09:01:19;;;;;;;15.57;9.48;;;-2.40;66.30;;;;;;5032850;28;20017;-79
2023/02/06 09:03:45;;;;;;;9.77;6.22;;;-2.70;65.70;;;;;;5032438;28;20021;-79
2023/02/06 09:06:12;;;;;;;9.60;7.28;;;-2.70;65.60;;;;;;5031520;28;20025;-80
2023/02/06 09:08:39;;;;;;;7.22;6.03;;;-2.90;65.70;;;;;;5029201;28;20049;-80
2023/02/06 09:11:11;;;;;;;7.22;5.40;;;-3.00;65.30;;;;;;5013632;28;20038;-81
2023/02/06 09:13:37;;;;;;;11.10;6.50;;;-3.10;65.10;;;;;;5013433;28;20080;-80
2023/02/06 09:16:04;;;;;;;13.70;8.02;;;-3.10;65.90;;;;;;5013242;28;20026;-79
2023/02/06 09:18:30;;;;;;;11.75;7.88;;;-3.10;66.80;;;;;;5013816;28;20036;-80
2023/02/06 09:21:06;;;;;;;10.25;6.50;;;-3.10;66.40;;;;;;5033005;28;20033;-81
2023/02/06 09:23:32;;;;;;;13.88;7.80;;;-3.10;66.30;;;;;;5015042;28;20034;-81
2023/02/06 09:25:58;;;;;;;15.35;8.18;;;-3.00;66.50;;;;;;5014956;28;20117;-80
2023/02/06 09:28:24;;;;;;;11.43;7.15;;;-2.90;67.20;;;;;;5032671;28;20441;-80
2023/02/06 09:30:49;;;;;;;12.80;7.60;;;-2.90;66.60;;;;;;5032290;28;20041;-80
2023/02/06 09:33:15;;;;;;;12.60;6.60;;;-2.70;67.00;;;;;;5032298;28;20364;-80
2023/02/06 09:35:40;;;;;;;14.38;7.00;;;-2.50;66.70;;;;;;5015073;28;20029;-80
2023/02/06 09:38:06;;;;;;;9.30;7.03;;;-2.40;65.70;;;;;;5032395;28;20471;-80
2023/02/06 09:40:34;;;;;;;12.52;7.60;;;-2.10;66.50;;;;;;5030582;28;20033;-83
2023/02/06 09:43:01;;;;;;;9.20;6.78;;;-2.00;65.80;;;;;;5012496;28;20045;-81
2023/02/06 09:45:29;;;;;;;12.23;7.60;;;-1.90;64.50;;;;;;5031365;28;20040;-80
2023/02/06 09:47:58;;;;;;;62.15;22.23;;;-1.70;64.80;;;;;;5032412;28;20029;-80
2023/02/06 09:50:57;;;;;;;15.88;8.32;;;-1.50;64.70;;;;;;5032341;28;20033;-80
2023/02/06 09:53:43;;;;;;;8.95;6.68;;;-1.70;65.50;;;;;;5017235;28;20021;-81
2023/02/06 09:56:27;;;;;;;12.75;6.25;;;-1.90;65.80;;;;;;5032338;28;20060;-80
2023/02/06 09:59:04;;;;;;;12.40;6.68;;;-2.00;66.00;;;;;;5032450;28;20045;-79
2023/02/06 10:01:46;;;;;;;9.45;6.65;;;-2.20;66.30;;;;;;5032917;28;20116;-79
2023/02/06 10:04:51;;;;;;;9.75;6.68;;;-2.30;66.70;;;;;;5035504;28;20013;-79
2023/02/06 10:07:40;;;;;;;9.65;6.30;;;-2.40;67.50;;;;;;5016634;28;20049;-79
2023/02/06 10:10:12;;;;;;;11.93;7.00;;;-2.50;66.90;;;;;;5015288;28;20044;-81
2023/02/06 10:12:41;;;;;;;11.55;6.28;;;-2.40;68.10;;;;;;5033189;28;20030;-79
2023/02/06 10:15:30;;;;;;;10.98;6.90;;;-2.40;67.90;;;;;;5017485;28;20067;-79
2023/02/06 10:18:22;;;;;;;14.25;5.70;;;-2.60;68.00;;;;;;5018230;28;20513;-79
2023/02/06 10:20:51;;;;;;;8.48;5.72;;;-2.60;67.50;;;;;;5036740;28;20033;-79
2023/02/06 10:23:31;;;;;;;11.30;6.38;;;-2.70;68.00;;;;;;5034868;28;20021;-78
2023/02/06 10:26:15;;;;;;;10.20;6.63;;;-2.60;67.90;;;;;;5035680;28;20025;-78
2023/02/06 10:28:47;;;;;;;11.90;7.47;;;-2.70;68.00;;;;;;5036175;28;20017;-78
2023/02/06 10:31:39;;;;;;;8.80;6.50;;;-2.90;67.90;;;;;;5037783;28;20065;-79
2023/02/06 10:34:14;;;;;;;11.55;6.82;;;-2.90;68.90;;;;;;5055391;28;20295;-79
2023/02/06 10:37:00;;;;;;;10.38;6.28;;;-3.00;69.60;;;;;;5055617;28;20049;-78
2023/02/06 10:39:51;;;;;;;10.80;7.18;;;-3.10;69.60;;;;;;5037305;28;20029;-79
2023/02/06 10:42:42;;;;;;;10.02;6.55;;;-3.00;68.70;;;;;;5036905;28;20032;-78
2023/02/06 10:45:31;;;;;;;51.42;23.85;;;-3.00;69.30;;;;;;5042434;28;20107;-78
2023/02/06 10:48:03;;;;;;;13.73;8.82;;;-3.00;69.20;;;;;;5015419;28;20389;-78
2023/02/06 10:50:49;;;;;;;11.82;7.70;;;-3.00;69.80;;;;;;5047383;28;20078;-79
2023/02/06 10:53:38;;;;;;;13.70;9.52;;;-3.10;69.90;;;;;;5036053;28;20481;-78
2023/02/06 10:56:16;;;;;;;21.92;13.55;;;-3.10;69.70;;;;;;5034827;28;20037;-79
2023/02/06 10:58:51;;;;;;;15.27;11.13;;;-3.20;69.80;;;;;;5037250;28;20025;-79
2023/02/06 11:01:17;;;;;;;25.30;17.15;;;-3.20;69.70;;;;;;5051000;28;20026;-78
2023/02/06 11:03:54;;;;;;;25.23;16.58;;;-3.00;70.40;;;;;;5016197;28;20064;-79
2023/02/06 11:06:24;;;;;;;30.98;21.02;;;-2.80;70.20;;;;;;4997847;28;20029;-79
2023/02/06 11:08:50;;;;;;;30.30;19.73;;;-2.50;70.10;;;;;;5000438;28;20108;-78
2023/02/06 11:11:28;;;;;;;27.35;19.25;;;-2.50;69.10;;;;;;5036372;28;20113;-79
2023/02/06 11:14:14;;;;;;;22.20;17.45;;;-2.40;68.80;;;;;;5016291;28;20049;-79
2023/02/06 11:16:41;;;;;;;15.55;12.23;;;-2.30;68.70;;;;;;5036941;28;20028;-78
2023/02/06 11:19:25;;;;;;;21.45;15.48;;;-2.30;68.40;;;;;;5054362;28;20017;-79
2023/02/06 11:22:08;;;;;;;17.25;13.75;;;-2.40;67.70;;;;;;5036675;28;20021;-79
2023/02/06 11:24:36;;;;;;;25.80;17.38;;;-2.40;68.10;;;;;;5054512;28;20485;-79
2023/02/06 11:27:12;;;;;;;19.58;12.70;;;-2.20;68.20;;;;;;5036778;28;20390;-78
2023/02/06 11:29:45;;;;;;;21.75;14.50;;;-2.10;67.80;;;;;;5054398;28;20024;-79
2023/02/06 11:32:24;;;;;;;17.83;12.50;;;-1.90;67.90;;;;;;5036576;28;20393;-79
2023/02/06 11:34:55;;;;;;;27.80;17.65;;;-1.80;67.20;;;;;;5054182;28;20033;-78
2023/02/06 11:37:32;;;;;;;14.02;8.38;;;-1.60;66.90;;;;;;5036469;28;20025;-78
2023/02/06 11:40:16;;;;;;;12.68;7.38;;;-1.70;65.00;;;;;;5036605;28;20020;-78
2023/02/06 11:42:46;;;;;;;24.35;13.18;;;-2.00;65.00;;;;;;5054492;28;20039;-79
2023/02/06 11:45:30;;;;;;;13.63;8.50;;;-2.10;66.70;;;;;;5053953;28;20052;-79
2023/02/06 11:47:56;;;;;;;16.73;10.02;;;-2.20;65.30;;;;;;5036328;28;20091;-78
2023/02/06 11:50:29;;;;;;;13.90;8.13;;;-2.30;66.60;;;;;;5035869;28;20541;-78
2023/02/06 11:53:18;;;;;;;16.92;9.57;;;-2.50;66.10;;;;;;5036275;28;20029;-79
2023/02/06 11:55:56;;;;;;;15.60;9.48;;;-2.50;67.50;;;;;;5023047;28;20128;-79
2023/02/06 11:58:25;;;;;;;15.35;11.23;;;-2.40;66.90;;;;;;5053979;28;20049;-79
2023/02/06 12:00:51;;;;;;;11.15;6.93;;;-2.40;66.90;;;;;;5053755;28;20029;-79
2023/02/06 12:03:42;;;;;;;13.20;6.82;;;-2.30;67.10;;;;;;5053919;28;20028;-79
2023/02/06 12:06:15;;;;;;;25.70;13.02;;;-2.10;66.30;;;;;;5035728;28;20029;-79
2023/02/06 12:08:48;;;;;;;34.47;17.40;;;-2.00;66.00;;;;;;5035995;28;20021;-79
2023/02/06 12:11:17;;;;;;;;;;;-1.90;66.80;;;;;;5036877;28;20079;-79
2023/02/06 12:13:49;;;;;;;33.03;16.20;;;-2.10;67.40;;;;;;5032783;28;19964;-79
2023/02/06 12:16:15;;;;;;;35.10;16.83;;;-2.40;67.80;;;;;;5019474;28;20543;-79
2023/02/06 12:18:44;;;;;;;37.85;20.30;;;-2.60;68.70;;;;;;5015637;28;20026;-79
2023/02/06 12:21:25;;;;;;;36.55;17.15;;;-2.60;69.00;;;;;;5036509;28;20105;-79
2023/02/06 12:24:01;;;;;;;224.27;81.30;;;-2.60;69.40;;;;;;5015945;28;20034;-79
2023/02/06 12:26:29;;;;;;;39.65;19.35;;;-2.50;69.10;;;;;;5032449;28;20031;-80
2023/02/06 12:29:01;;;;;;;33.10;16.65;;;-2.50;68.80;;;;;;5001019;28;20034;-79
2023/02/06 12:31:51;;;;;;;34.85;18.08;;;-2.60;68.80;;;;;;5027804;28;20046;-81
2023/02/06 12:34:40;;;;;;;36.85;21.13;;;-2.50;69.50;;;;;;5014505;28;20026;-80
2023/02/06 12:37:20;;;;;;;38.70;21.13;;;-2.60;69.50;;;;;;5011820;28;20030;-80
2023/02/06 12:39:47;;;;;;;38.53;19.23;;;-2.60;69.70;;;;;;5015270;28;20459;-80
2023/02/06 12:42:36;;;;;;;40.47;20.92;;;-2.50;69.50;;;;;;5014993;28;20391;-81
2023/02/06 12:45:31;;;;;;;62.70;26.38;;;-2.50;68.80;;;;;;5030637;28;20361;-80
2023/02/06 12:48:17;;;;;;;36.75;15.02;;;-2.50;69.10;;;;;;5027883;28;20455;-80